sensor_id;sensor_type;location;lat;lon;timestamp;P1;durP1;ratioP1;P2;durP2;ratioP2
53519;SDS011;39397;53.204;5.778;2022-11-20T00:01:10;13.82;;;8.57;;
53519;SDS011;39397;53.204;5.778;2022-11-20T00:03:44;16.75;;;9.13;;
53519;SDS011;39397;53.204;5.778;2022-11-20T00:06:11;11.50;;;7.95;;
53519;SDS011;39397;53.204;5.778;2022-11-20T00:08:40;12.55;;;7.63;;
53519;SDS011;39397;53.204;5.778;2022-11-20T00:11:10;13.57;;;7.88;;
53519;SDS011;39397;53.204;5.778;2022-11-20T00:13:41;10.43;;;7.13;;
53519;SDS011;39397;53.204;5.778;2022-11-20T00:16:08;13.27;;;8.23;;
53519;SDS011;39397;53.204;5.778;2022-11-20T00:18:35;12.07;;;7.25;;
53519;SDS011;39397;53.204;5.778;2022-11-20T00:21:05;12.57;;;7.60;;
53519;SDS011;39397;53.204;5.778;2022-11-20T00:23:33;11.73;;;7.30;;
53519;SDS011;39397;53.204;5.778;2022-11-20T00:26:06;12.48;;;7.85;;
53519;SDS011;39397;53.204;5.778;2022-11-20T00:28:33;11.05;;;7.07;;
53519;SDS011;39397;53.204;5.778;2022-11-20T00:31:00;11.65;;;7.68;;
53519;SDS011;39397;53.204;5.778;2022-11-20T00:33:30;13.68;;;7.65;;
53519;SDS011;39397;53.204;5.778;2022-11-20T00:36:00;11.60;;;7.65;;
53519;SDS011;39397;53.204;5.778;2022-11-20T00:38:32;10.85;;;8.05;;
53519;SDS011;39397;53.204;5.778;2022-11-20T00:40:59;13.50;;;8.15;;
53519;SDS011;39397;53.204;5.778;2022-11-20T00:43:26;13.75;;;8.45;;
53519;SDS011;39397;53.204;5.778;2022-11-20T00:46:26;13.23;;;7.93;;
53519;SDS011;39397;53.204;5.778;2022-11-20T00:48:46;13.73;;;7.93;;
53519;SDS011;39397;53.204;5.778;2022-11-20T00:51:18;12.68;;;8.10;;
53519;SDS011;39397;53.204;5.778;2022-11-20T00:53:45;11.93;;;7.85;;
53519;SDS011;39397;53.204;5.778;2022-11-20T00:56:13;14.02;;;8.55;;
53519;SDS011;39397;53.204;5.778;2022-11-20T00:58:41;12.13;;;7.88;;
53519;SDS011;39397;53.204;5.778;2022-11-20T01:03:39;12.95;;;8.07;;
53519;SDS011;39397;53.204;5.778;2022-11-20T01:06:09;12.38;;;7.95;;
53519;SDS011;39397;53.204;5.778;2022-11-20T01:08:37;11.50;;;7.45;;
53519;SDS011;39397;53.204;5.778;2022-11-20T01:11:04;13.73;;;8.23;;
53519;SDS011;39397;53.204;5.778;2022-11-20T01:13:35;13.77;;;8.82;;
53519;SDS011;39397;53.204;5.778;2022-11-20T01:18:36;12.57;;;6.93;;
53519;SDS011;39397;53.204;5.778;2022-11-20T01:21:11;11.93;;;7.68;;
53519;SDS011;39397;53.204;5.778;2022-11-20T01:23:39;12.13;;;7.88;;
53519;SDS011;39397;53.204;5.778;2022-11-20T01:26:07;11.57;;;7.28;;
53519;SDS011;39397;53.204;5.778;2022-11-20T01:28:39;12.25;;;7.88;;
53519;SDS011;39397;53.204;5.778;2022-11-20T01:31:13;12.85;;;7.97;;
53519;SDS011;39397;53.204;5.778;2022-11-20T01:33:51;12.73;;;7.93;;
53519;SDS011;39397;53.204;5.778;2022-11-20T01:36:18;12.57;;;7.55;;
53519;SDS011;39397;53.204;5.778;2022-11-20T01:38:52;12.43;;;8.13;;
53519;SDS011;39397;53.204;5.778;2022-11-20T01:41:23;13.45;;;8.30;;
53519;SDS011;39397;53.204;5.778;2022-11-20T01:44:12;14.73;;;8.65;;
53519;SDS011;39397;53.204;5.778;2022-11-20T01:46:42;13.63;;;8.48;;
53519;SDS011;39397;53.204;5.778;2022-11-20T01:49:22;13.40;;;8.20;;
53519;SDS011;39397;53.204;5.778;2022-11-20T01:52:01;12.73;;;8.13;;
53519;SDS011;39397;53.204;5.778;2022-11-20T01:54:38;12.15;;;8.80;;
53519;SDS011;39397;53.204;5.778;2022-11-20T01:57:07;14.77;;;8.35;;
53519;SDS011;39397;53.204;5.778;2022-11-20T01:59:37;12.90;;;8.38;;
53519;SDS011;39397;53.204;5.778;2022-11-20T02:02:09;13.52;;;8.93;;
53519;SDS011;39397;53.204;5.778;2022-11-20T02:04:35;12.18;;;8.05;;
53519;SDS011;39397;53.204;5.778;2022-11-20T02:07:03;14.18;;;9.10;;
53519;SDS011;39397;53.204;5.778;2022-11-20T02:09:30;15.77;;;8.82;;
53519;SDS011;39397;53.204;5.778;2022-11-20T02:11:56;14.57;;;8.77;;
53519;SDS011;39397;53.204;5.778;2022-11-20T02:14:23;13.98;;;8.10;;
53519;SDS011;39397;53.204;5.778;2022-11-20T02:16:50;11.48;;;7.45;;
53519;SDS011;39397;53.204;5.778;2022-11-20T02:19:20;11.45;;;7.40;;
53519;SDS011;39397;53.204;5.778;2022-11-20T02:25:05;14.73;;;8.73;;
53519;SDS011;39397;53.204;5.778;2022-11-20T02:27:32;12.57;;;8.48;;
53519;SDS011;39397;53.204;5.778;2022-11-20T02:30:00;13.60;;;8.77;;
53519;SDS011;39397;53.204;5.778;2022-11-20T02:32:29;13.52;;;8.82;;
53519;SDS011;39397;53.204;5.778;2022-11-20T02:34:57;11.98;;;7.68;;
53519;SDS011;39397;53.204;5.778;2022-11-20T02:37:25;14.02;;;9.52;;
53519;SDS011;39397;53.204;5.778;2022-11-20T02:39:57;13.32;;;8.75;;
53519;SDS011;39397;53.204;5.778;2022-11-20T02:42:23;11.93;;;8.43;;
53519;SDS011;39397;53.204;5.778;2022-11-20T02:44:49;13.88;;;8.80;;
53519;SDS011;39397;53.204;5.778;2022-11-20T02:47:14;13.75;;;8.65;;
53519;SDS011;39397;53.204;5.778;2022-11-20T02:49:40;14.40;;;8.90;;
53519;SDS011;39397;53.204;5.778;2022-11-20T02:52:06;14.40;;;8.15;;
53519;SDS011;39397;53.204;5.778;2022-11-20T02:54:31;12.25;;;7.75;;
53519;SDS011;39397;53.204;5.778;2022-11-20T02:56:57;14.38;;;8.57;;
53519;SDS011;39397;53.204;5.778;2022-11-20T02:59:23;13.40;;;8.77;;
53519;SDS011;39397;53.204;5.778;2022-11-20T03:01:48;15.02;;;8.68;;
53519;SDS011;39397;53.204;5.778;2022-11-20T03:04:14;13.27;;;8.40;;
53519;SDS011;39397;53.204;5.778;2022-11-20T03:06:40;13.45;;;8.35;;
53519;SDS011;39397;53.204;5.778;2022-11-20T03:09:05;13.05;;;7.70;;
53519;SDS011;39397;53.204;5.778;2022-11-20T03:11:31;12.73;;;8.43;;
53519;SDS011;39397;53.204;5.778;2022-11-20T03:13:57;12.75;;;8.32;;
53519;SDS011;39397;53.204;5.778;2022-11-20T03:16:23;14.63;;;8.32;;
53519;SDS011;39397;53.204;5.778;2022-11-20T03:18:49;12.65;;;8.45;;
53519;SDS011;39397;53.204;5.778;2022-11-20T03:21:16;12.27;;;7.90;;
53519;SDS011;39397;53.204;5.778;2022-11-20T03:23:42;12.40;;;7.50;;
53519;SDS011;39397;53.204;5.778;2022-11-20T03:26:12;12.68;;;8.30;;
53519;SDS011;39397;53.204;5.778;2022-11-20T03:28:38;12.20;;;7.30;;
53519;SDS011;39397;53.204;5.778;2022-11-20T03:31:14;12.90;;;8.18;;
53519;SDS011;39397;53.204;5.778;2022-11-20T03:33:41;10.43;;;7.07;;
53519;SDS011;39397;53.204;5.778;2022-11-20T03:36:08;12.73;;;7.95;;
53519;SDS011;39397;53.204;5.778;2022-11-20T03:38:36;13.00;;;8.45;;
53519;SDS011;39397;53.204;5.778;2022-11-20T03:41:04;11.18;;;7.40;;
53519;SDS011;39397;53.204;5.778;2022-11-20T03:43:31;11.55;;;8.05;;
53519;SDS011;39397;53.204;5.778;2022-11-20T03:45:57;14.13;;;7.95;;
53519;SDS011;39397;53.204;5.778;2022-11-20T03:48:23;13.00;;;8.20;;
53519;SDS011;39397;53.204;5.778;2022-11-20T03:50:50;12.63;;;7.53;;
53519;SDS011;39397;53.204;5.778;2022-11-20T03:53:16;12.55;;;8.05;;
53519;SDS011;39397;53.204;5.778;2022-11-20T03:55:42;14.27;;;8.85;;
53519;SDS011;39397;53.204;5.778;2022-11-20T03:58:08;13.18;;;7.95;;
53519;SDS011;39397;53.204;5.778;2022-11-20T04:00:34;13.23;;;8.35;;
53519;SDS011;39397;53.204;5.778;2022-11-20T04:03:01;13.50;;;8.50;;
53519;SDS011;39397;53.204;5.778;2022-11-20T04:05:28;12.90;;;8.00;;
53519;SDS011;39397;53.204;5.778;2022-11-20T04:07:53;12.23;;;7.70;;
53519;SDS011;39397;53.204;5.778;2022-11-20T04:10:19;12.57;;;8.38;;
53519;SDS011;39397;53.204;5.778;2022-11-20T04:12:45;13.65;;;8.15;;
53519;SDS011;39397;53.204;5.778;2022-11-20T04:15:10;13.88;;;7.88;;
53519;SDS011;39397;53.204;5.778;2022-11-20T04:17:36;13.90;;;8.65;;
53519;SDS011;39397;53.204;5.778;2022-11-20T04:20:02;12.18;;;8.35;;
53519;SDS011;39397;53.204;5.778;2022-11-20T04:22:28;12.20;;;8.45;;
53519;SDS011;39397;53.204;5.778;2022-11-20T04:24:54;15.02;;;9.20;;
53519;SDS011;39397;53.204;5.778;2022-11-20T04:27:20;15.38;;;8.45;;
53519;SDS011;39397;53.204;5.778;2022-11-20T04:29:46;12.38;;;8.50;;
53519;SDS011;39397;53.204;5.778;2022-11-20T04:32:11;12.73;;;8.75;;
53519;SDS011;39397;53.204;5.778;2022-11-20T04:34:37;13.23;;;8.30;;
53519;SDS011;39397;53.204;5.778;2022-11-20T04:37:03;12.95;;;8.45;;
53519;SDS011;39397;53.204;5.778;2022-11-20T04:39:28;12.65;;;8.32;;
53519;SDS011;39397;53.204;5.778;2022-11-20T04:41:54;13.25;;;8.55;;
53519;SDS011;39397;53.204;5.778;2022-11-20T04:44:38;14.43;;;7.97;;
53519;SDS011;39397;53.204;5.778;2022-11-20T04:47:04;14.38;;;8.30;;
53519;SDS011;39397;53.204;5.778;2022-11-20T04:49:30;11.52;;;7.82;;
53519;SDS011;39397;53.204;5.778;2022-11-20T04:51:56;13.13;;;7.82;;
53519;SDS011;39397;53.204;5.778;2022-11-20T04:54:22;12.45;;;8.55;;
53519;SDS011;39397;53.204;5.778;2022-11-20T04:56:48;13.20;;;8.25;;
53519;SDS011;39397;53.204;5.778;2022-11-20T04:59:14;13.63;;;7.90;;
53519;SDS011;39397;53.204;5.778;2022-11-20T05:01:40;14.75;;;8.70;;
53519;SDS011;39397;53.204;5.778;2022-11-20T05:04:06;14.48;;;8.27;;
53519;SDS011;39397;53.204;5.778;2022-11-20T05:06:32;12.95;;;8.30;;
53519;SDS011;39397;53.204;5.778;2022-11-20T05:08:58;13.52;;;7.45;;
53519;SDS011;39397;53.204;5.778;2022-11-20T05:11:24;12.82;;;7.88;;
53519;SDS011;39397;53.204;5.778;2022-11-20T05:13:50;14.73;;;8.63;;
53519;SDS011;39397;53.204;5.778;2022-11-20T05:16:23;12.48;;;8.00;;
53519;SDS011;39397;53.204;5.778;2022-11-20T05:18:50;14.80;;;8.85;;
53519;SDS011;39397;53.204;5.778;2022-11-20T05:21:16;13.10;;;8.43;;
53519;SDS011;39397;53.204;5.778;2022-11-20T05:23:43;16.60;;;9.45;;
53519;SDS011;39397;53.204;5.778;2022-11-20T05:26:12;12.50;;;8.02;;
53519;SDS011;39397;53.204;5.778;2022-11-20T05:28:43;13.63;;;7.90;;
53519;SDS011;39397;53.204;5.778;2022-11-20T05:31:19;13.27;;;8.10;;
53519;SDS011;39397;53.204;5.778;2022-11-20T05:33:46;14.10;;;7.10;;
53519;SDS011;39397;53.204;5.778;2022-11-20T05:36:12;12.15;;;8.23;;
53519;SDS011;39397;53.204;5.778;2022-11-20T05:38:39;12.73;;;7.82;;
53519;SDS011;39397;53.204;5.778;2022-11-20T05:41:10;12.93;;;8.55;;
53519;SDS011;39397;53.204;5.778;2022-11-20T05:43:38;15.63;;;9.32;;
53519;SDS011;39397;53.204;5.778;2022-11-20T05:46:06;16.35;;;8.60;;
53519;SDS011;39397;53.204;5.778;2022-11-20T05:48:33;13.10;;;7.80;;
53519;SDS011;39397;53.204;5.778;2022-11-20T05:51:00;13.85;;;8.98;;
53519;SDS011;39397;53.204;5.778;2022-11-20T05:53:27;13.50;;;8.20;;
53519;SDS011;39397;53.204;5.778;2022-11-20T05:55:56;14.85;;;8.68;;
53519;SDS011;39397;53.204;5.778;2022-11-20T05:58:23;11.90;;;8.13;;
53519;SDS011;39397;53.204;5.778;2022-11-20T06:00:48;12.90;;;9.02;;
53519;SDS011;39397;53.204;5.778;2022-11-20T06:03:14;13.80;;;8.80;;
53519;SDS011;39397;53.204;5.778;2022-11-20T06:05:39;14.40;;;8.07;;
53519;SDS011;39397;53.204;5.778;2022-11-20T06:08:05;13.00;;;8.20;;
53519;SDS011;39397;53.204;5.778;2022-11-20T06:10:31;13.43;;;8.52;;
53519;SDS011;39397;53.204;5.778;2022-11-20T06:12:57;13.32;;;8.23;;
53519;SDS011;39397;53.204;5.778;2022-11-20T06:15:23;11.15;;;7.18;;
53519;SDS011;39397;53.204;5.778;2022-11-20T06:17:51;11.63;;;8.43;;
53519;SDS011;39397;53.204;5.778;2022-11-20T06:20:20;15.98;;;9.50;;
53519;SDS011;39397;53.204;5.778;2022-11-20T06:22:46;13.82;;;9.35;;
53519;SDS011;39397;53.204;5.778;2022-11-20T06:25:12;15.45;;;8.52;;
53519;SDS011;39397;53.204;5.778;2022-11-20T06:27:38;15.93;;;9.52;;
53519;SDS011;39397;53.204;5.778;2022-11-20T06:30:04;14.15;;;8.85;;
53519;SDS011;39397;53.204;5.778;2022-11-20T06:32:30;12.70;;;8.02;;
53519;SDS011;39397;53.204;5.778;2022-11-20T06:34:57;13.68;;;8.65;;
53519;SDS011;39397;53.204;5.778;2022-11-20T06:37:23;12.23;;;7.22;;
53519;SDS011;39397;53.204;5.778;2022-11-20T06:39:54;14.43;;;8.70;;
53519;SDS011;39397;53.204;5.778;2022-11-20T06:42:20;12.88;;;8.07;;
53519;SDS011;39397;53.204;5.778;2022-11-20T06:44:45;14.13;;;8.63;;
53519;SDS011;39397;53.204;5.778;2022-11-20T06:47:11;14.15;;;8.23;;
53519;SDS011;39397;53.204;5.778;2022-11-20T06:49:37;14.07;;;8.65;;
53519;SDS011;39397;53.204;5.778;2022-11-20T06:52:03;15.48;;;9.95;;
53519;SDS011;39397;53.204;5.778;2022-11-20T06:54:29;14.10;;;8.82;;
53519;SDS011;39397;53.204;5.778;2022-11-20T06:56:56;16.17;;;9.32;;
53519;SDS011;39397;53.204;5.778;2022-11-20T06:59:22;14.07;;;8.98;;
53519;SDS011;39397;53.204;5.778;2022-11-20T07:01:48;15.25;;;10.18;;
53519;SDS011;39397;53.204;5.778;2022-11-20T07:04:13;13.38;;;8.50;;
53519;SDS011;39397;53.204;5.778;2022-11-20T07:06:39;14.10;;;9.52;;
53519;SDS011;39397;53.204;5.778;2022-11-20T07:09:05;16.70;;;8.95;;
53519;SDS011;39397;53.204;5.778;2022-11-20T07:11:30;15.15;;;10.07;;
53519;SDS011;39397;53.204;5.778;2022-11-20T07:13:56;14.50;;;9.00;;
53519;SDS011;39397;53.204;5.778;2022-11-20T07:16:22;16.33;;;9.48;;
53519;SDS011;39397;53.204;5.778;2022-11-20T07:18:48;13.73;;;8.82;;
53519;SDS011;39397;53.204;5.778;2022-11-20T07:21:13;14.43;;;9.40;;
53519;SDS011;39397;53.204;5.778;2022-11-20T07:23:39;17.98;;;10.63;;
53519;SDS011;39397;53.204;5.778;2022-11-20T07:26:08;16.10;;;10.30;;
53519;SDS011;39397;53.204;5.778;2022-11-20T07:28:36;15.43;;;10.13;;
53519;SDS011;39397;53.204;5.778;2022-11-20T07:31:02;16.23;;;9.60;;
53519;SDS011;39397;53.204;5.778;2022-11-20T07:33:29;15.05;;;10.27;;
53519;SDS011;39397;53.204;5.778;2022-11-20T07:35:55;15.85;;;10.95;;
53519;SDS011;39397;53.204;5.778;2022-11-20T07:38:24;15.98;;;10.02;;
53519;SDS011;39397;53.204;5.778;2022-11-20T07:40:53;17.52;;;10.88;;
53519;SDS011;39397;53.204;5.778;2022-11-20T07:43:19;16.58;;;9.65;;
53519;SDS011;39397;53.204;5.778;2022-11-20T07:45:45;14.63;;;10.55;;
53519;SDS011;39397;53.204;5.778;2022-11-20T07:48:11;15.55;;;10.05;;
53519;SDS011;39397;53.204;5.778;2022-11-20T07:50:36;15.68;;;10.60;;
53519;SDS011;39397;53.204;5.778;2022-11-20T07:53:03;15.65;;;10.27;;
53519;SDS011;39397;53.204;5.778;2022-11-20T07:55:30;15.57;;;9.68;;
53519;SDS011;39397;53.204;5.778;2022-11-20T07:57:56;15.13;;;9.32;;
53519;SDS011;39397;53.204;5.778;2022-11-20T08:00:22;16.38;;;9.75;;
53519;SDS011;39397;53.204;5.778;2022-11-20T08:02:51;15.70;;;8.93;;
53519;SDS011;39397;53.204;5.778;2022-11-20T08:05:20;14.77;;;9.60;;
53519;SDS011;39397;53.204;5.778;2022-11-20T08:07:45;15.18;;;9.55;;
53519;SDS011;39397;53.204;5.778;2022-11-20T08:10:12;15.73;;;10.90;;
53519;SDS011;39397;53.204;5.778;2022-11-20T08:12:49;15.68;;;10.20;;
53519;SDS011;39397;53.204;5.778;2022-11-20T08:15:34;18.02;;;10.55;;
53519;SDS011;39397;53.204;5.778;2022-11-20T08:20:34;17.65;;;11.43;;
53519;SDS011;39397;53.204;5.778;2022-11-20T08:23:01;16.88;;;10.82;;
53519;SDS011;39397;53.204;5.778;2022-11-20T08:25:28;17.75;;;11.38;;
53519;SDS011;39397;53.204;5.778;2022-11-20T08:27:56;18.50;;;11.95;;
53519;SDS011;39397;53.204;5.778;2022-11-20T08:30:26;19.02;;;12.27;;
53519;SDS011;39397;53.204;5.778;2022-11-20T08:32:52;18.50;;;11.95;;
53519;SDS011;39397;53.204;5.778;2022-11-20T08:35:18;17.73;;;11.35;;
53519;SDS011;39397;53.204;5.778;2022-11-20T08:37:48;18.13;;;11.40;;
53519;SDS011;39397;53.204;5.778;2022-11-20T08:40:14;17.45;;;11.68;;
53519;SDS011;39397;53.204;5.778;2022-11-20T08:42:47;15.35;;;10.35;;
53519;SDS011;39397;53.204;5.778;2022-11-20T08:45:14;15.30;;;10.57;;
53519;SDS011;39397;53.204;5.778;2022-11-20T08:47:40;17.70;;;11.70;;
53519;SDS011;39397;53.204;5.778;2022-11-20T08:50:07;17.45;;;11.23;;
53519;SDS011;39397;53.204;5.778;2022-11-20T08:52:33;16.30;;;11.00;;
53519;SDS011;39397;53.204;5.778;2022-11-20T08:54:59;17.55;;;11.05;;
53519;SDS011;39397;53.204;5.778;2022-11-20T08:57:25;15.32;;;10.57;;
53519;SDS011;39397;53.204;5.778;2022-11-20T08:59:50;16.52;;;11.40;;
53519;SDS011;39397;53.204;5.778;2022-11-20T09:02:16;14.65;;;10.45;;
53519;SDS011;39397;53.204;5.778;2022-11-20T09:04:42;16.48;;;10.10;;
53519;SDS011;39397;53.204;5.778;2022-11-20T09:07:07;17.98;;;11.85;;
53519;SDS011;39397;53.204;5.778;2022-11-20T09:09:33;21.13;;;11.43;;
53519;SDS011;39397;53.204;5.778;2022-11-20T09:11:59;16.00;;;9.88;;
53519;SDS011;39397;53.204;5.778;2022-11-20T09:14:26;13.32;;;8.40;;
53519;SDS011;39397;53.204;5.778;2022-11-20T09:16:56;11.57;;;7.78;;
53519;SDS011;39397;53.204;5.778;2022-11-20T09:19:23;14.52;;;9.65;;
53519;SDS011;39397;53.204;5.778;2022-11-20T09:21:49;12.55;;;8.98;;
53519;SDS011;39397;53.204;5.778;2022-11-20T09:24:15;17.38;;;9.55;;
53519;SDS011;39397;53.204;5.778;2022-11-20T09:26:41;12.70;;;9.13;;
53519;SDS011;39397;53.204;5.778;2022-11-20T09:29:07;15.65;;;9.85;;
53519;SDS011;39397;53.204;5.778;2022-11-20T09:31:32;13.82;;;9.27;;
53519;SDS011;39397;53.204;5.778;2022-11-20T09:33:58;13.68;;;9.68;;
53519;SDS011;39397;53.204;5.778;2022-11-20T09:36:23;13.27;;;9.05;;
53519;SDS011;39397;53.204;5.778;2022-11-20T09:38:49;14.20;;;9.43;;
53519;SDS011;39397;53.204;5.778;2022-11-20T09:44:33;11.02;;;8.23;;
53519;SDS011;39397;53.204;5.778;2022-11-20T09:49:29;14.52;;;9.05;;
53519;SDS011;39397;53.204;5.778;2022-11-20T09:54:36;12.18;;;8.35;;
53519;SDS011;39397;53.204;5.778;2022-11-20T09:57:38;11.95;;;8.38;;
53519;SDS011;39397;53.204;5.778;2022-11-20T10:00:00;13.50;;;9.27;;
53519;SDS011;39397;53.204;5.778;2022-11-20T10:05:25;17.33;;;9.30;;
53519;SDS011;39397;53.204;5.778;2022-11-20T10:08:10;13.07;;;9.65;;
53519;SDS011;39397;53.204;5.778;2022-11-20T10:14:10;12.98;;;8.82;;
53519;SDS011;39397;53.204;5.778;2022-11-20T10:19:41;12.60;;;8.48;;
53519;SDS011;39397;53.204;5.778;2022-11-20T10:22:14;13.48;;;8.88;;
53519;SDS011;39397;53.204;5.778;2022-11-20T10:24:48;13.63;;;9.65;;
53519;SDS011;39397;53.204;5.778;2022-11-20T10:30:43;12.40;;;8.60;;
53519;SDS011;39397;53.204;5.778;2022-11-20T10:33:16;13.95;;;9.20;;
53519;SDS011;39397;53.204;5.778;2022-11-20T10:35:50;13.98;;;9.35;;
53519;SDS011;39397;53.204;5.778;2022-11-20T10:38:35;12.40;;;8.95;;
53519;SDS011;39397;53.204;5.778;2022-11-20T10:41:05;12.82;;;9.05;;
53519;SDS011;39397;53.204;5.778;2022-11-20T10:43:51;12.32;;;8.98;;
53519;SDS011;39397;53.204;5.778;2022-11-20T10:46:43;12.25;;;8.48;;
53519;SDS011;39397;53.204;5.778;2022-11-20T10:49:17;12.35;;;8.52;;
53519;SDS011;39397;53.204;5.778;2022-11-20T10:56:56;12.93;;;9.10;;
53519;SDS011;39397;53.204;5.778;2022-11-20T10:59:49;12.57;;;8.50;;
53519;SDS011;39397;53.204;5.778;2022-11-20T11:02:39;13.00;;;8.55;;
53519;SDS011;39397;53.204;5.778;2022-11-20T11:05:11;11.40;;;7.87;;
53519;SDS011;39397;53.204;5.778;2022-11-20T11:07:39;12.18;;;8.05;;
53519;SDS011;39397;53.204;5.778;2022-11-20T11:10:14;12.50;;;7.63;;
53519;SDS011;39397;53.204;5.778;2022-11-20T11:12:47;9.57;;;6.65;;
53519;SDS011;39397;53.204;5.778;2022-11-20T11:15:30;8.90;;;5.78;;
53519;SDS011;39397;53.204;5.778;2022-11-20T11:18:03;8.45;;;6.78;;
53519;SDS011;39397;53.204;5.778;2022-11-20T11:20:29;8.52;;;5.80;;
53519;SDS011;39397;53.204;5.778;2022-11-20T11:22:56;12.63;;;6.57;;
53519;SDS011;39397;53.204;5.778;2022-11-20T11:25:24;10.10;;;6.78;;
53519;SDS011;39397;53.204;5.778;2022-11-20T11:27:55;8.75;;;6.25;;
53519;SDS011;39397;53.204;5.778;2022-11-20T11:30:26;9.23;;;6.07;;
53519;SDS011;39397;53.204;5.778;2022-11-20T11:33:05;10.10;;;6.32;;
53519;SDS011;39397;53.204;5.778;2022-11-20T11:35:47;8.93;;;5.65;;
53519;SDS011;39397;53.204;5.778;2022-11-20T11:38:22;8.70;;;5.85;;
53519;SDS011;39397;53.204;5.778;2022-11-20T11:40:48;7.55;;;5.55;;
53519;SDS011;39397;53.204;5.778;2022-11-20T11:43:34;8.63;;;5.82;;
53519;SDS011;39397;53.204;5.778;2022-11-20T11:49:01;8.05;;;5.30;;
53519;SDS011;39397;53.204;5.778;2022-11-20T11:52:04;6.80;;;5.03;;
53519;SDS011;39397;53.204;5.778;2022-11-20T11:54:43;7.38;;;4.50;;
53519;SDS011;39397;53.204;5.778;2022-11-20T12:00:03;7.72;;;4.80;;
53519;SDS011;39397;53.204;5.778;2022-11-20T12:02:44;8.30;;;4.93;;
53519;SDS011;39397;53.204;5.778;2022-11-20T12:08:02;8.15;;;4.80;;
53519;SDS011;39397;53.204;5.778;2022-11-20T12:10:59;6.47;;;4.63;;
53519;SDS011;39397;53.204;5.778;2022-11-20T12:13:39;6.93;;;4.43;;
53519;SDS011;39397;53.204;5.778;2022-11-20T12:16:27;6.40;;;4.30;;
53519;SDS011;39397;53.204;5.778;2022-11-20T12:18:53;8.45;;;4.85;;
53519;SDS011;39397;53.204;5.778;2022-11-20T12:21:35;53.72;;;17.80;;
53519;SDS011;39397;53.204;5.778;2022-11-20T12:24:38;8.35;;;4.60;;
53519;SDS011;39397;53.204;5.778;2022-11-20T12:27:11;7.53;;;4.80;;
53519;SDS011;39397;53.204;5.778;2022-11-20T12:30:10;9.02;;;4.80;;
53519;SDS011;39397;53.204;5.778;2022-11-20T13:01:32;6.97;;;5.10;;
53519;SDS011;39397;53.204;5.778;2022-11-20T13:07:03;8.25;;;5.75;;
53519;SDS011;39397;53.204;5.778;2022-11-20T13:09:33;7.32;;;4.63;;
53519;SDS011;39397;53.204;5.778;2022-11-20T13:14:37;7.32;;;5.00;;
53519;SDS011;39397;53.204;5.778;2022-11-20T13:17:14;6.15;;;4.40;;
53519;SDS011;39397;53.204;5.778;2022-11-20T13:20:15;9.80;;;5.63;;
53519;SDS011;39397;53.204;5.778;2022-11-20T13:22:52;9.23;;;5.55;;
53519;SDS011;39397;53.204;5.778;2022-11-20T13:25:31;6.97;;;5.18;;
53519;SDS011;39397;53.204;5.778;2022-11-20T13:28:00;7.32;;;5.00;;
53519;SDS011;39397;53.204;5.778;2022-11-20T13:30:53;8.90;;;5.10;;
53519;SDS011;39397;53.204;5.778;2022-11-20T13:33:33;10.40;;;6.05;;
53519;SDS011;39397;53.204;5.778;2022-11-20T13:36:02;8.90;;;5.30;;
53519;SDS011;39397;53.204;5.778;2022-11-20T13:38:28;8.48;;;5.40;;
53519;SDS011;39397;53.204;5.778;2022-11-20T13:41:09;7.18;;;5.35;;
53519;SDS011;39397;53.204;5.778;2022-11-20T13:49:39;7.28;;;5.00;;
53519;SDS011;39397;53.204;5.778;2022-11-20T13:55:48;7.95;;;5.13;;
53519;SDS011;39397;53.204;5.778;2022-11-20T13:58:13;7.57;;;5.50;;
53519;SDS011;39397;53.204;5.778;2022-11-20T14:00:57;9.07;;;5.60;;
53519;SDS011;39397;53.204;5.778;2022-11-20T14:03:32;7.80;;;5.38;;
53519;SDS011;39397;53.204;5.778;2022-11-20T14:06:03;9.02;;;6.25;;
53519;SDS011;39397;53.204;5.778;2022-11-20T14:08:38;10.45;;;6.15;;
53519;SDS011;39397;53.204;5.778;2022-11-20T14:13:56;9.10;;;5.07;;
53519;SDS011;39397;53.204;5.778;2022-11-20T14:17:17;10.43;;;7.00;;
53519;SDS011;39397;53.204;5.778;2022-11-20T14:20:15;10.18;;;6.13;;
53519;SDS011;39397;53.204;5.778;2022-11-20T14:22:54;9.45;;;6.35;;
53519;SDS011;39397;53.204;5.778;2022-11-20T14:25:21;9.50;;;5.85;;
53519;SDS011;39397;53.204;5.778;2022-11-20T14:27:56;10.18;;;6.60;;
53519;SDS011;39397;53.204;5.778;2022-11-20T14:30:46;9.65;;;6.53;;
53519;SDS011;39397;53.204;5.778;2022-11-20T14:33:11;11.13;;;6.75;;
53519;SDS011;39397;53.204;5.778;2022-11-20T14:35:49;8.82;;;6.38;;
53519;SDS011;39397;53.204;5.778;2022-11-20T14:38:36;10.20;;;5.55;;
53519;SDS011;39397;53.204;5.778;2022-11-20T14:41:30;8.98;;;6.05;;
53519;SDS011;39397;53.204;5.778;2022-11-20T14:44:05;9.70;;;6.35;;
53519;SDS011;39397;53.204;5.778;2022-11-20T14:46:48;9.50;;;6.78;;
53519;SDS011;39397;53.204;5.778;2022-11-20T14:49:15;9.40;;;6.43;;
53519;SDS011;39397;53.204;5.778;2022-11-20T14:51:40;12.00;;;6.70;;
53519;SDS011;39397;53.204;5.778;2022-11-20T14:54:16;12.93;;;6.72;;
53519;SDS011;39397;53.204;5.778;2022-11-20T14:57:03;10.27;;;6.43;;
53519;SDS011;39397;53.204;5.778;2022-11-20T14:59:30;11.15;;;7.20;;
53519;SDS011;39397;53.204;5.778;2022-11-20T15:02:07;11.02;;;6.57;;
53519;SDS011;39397;53.204;5.778;2022-11-20T15:04:46;11.48;;;7.22;;
53519;SDS011;39397;53.204;5.778;2022-11-20T15:07:26;9.90;;;6.13;;
53519;SDS011;39397;53.204;5.778;2022-11-20T15:10:00;13.80;;;6.75;;
53519;SDS011;39397;53.204;5.778;2022-11-20T15:12:27;9.68;;;6.28;;
53519;SDS011;39397;53.204;5.778;2022-11-20T15:14:54;10.73;;;6.47;;
53519;SDS011;39397;53.204;5.778;2022-11-20T15:17:20;9.70;;;6.15;;
53519;SDS011;39397;53.204;5.778;2022-11-20T15:19:52;8.82;;;5.80;;
53519;SDS011;39397;53.204;5.778;2022-11-20T15:22:19;9.77;;;6.07;;
53519;SDS011;39397;53.204;5.778;2022-11-20T15:24:54;11.50;;;7.00;;
53519;SDS011;39397;53.204;5.778;2022-11-20T15:27:22;10.98;;;6.80;;
53519;SDS011;39397;53.204;5.778;2022-11-20T15:29:48;9.55;;;5.93;;
53519;SDS011;39397;53.204;5.778;2022-11-20T15:32:14;9.05;;;6.30;;
53519;SDS011;39397;53.204;5.778;2022-11-20T15:34:39;8.68;;;5.60;;
53519;SDS011;39397;53.204;5.778;2022-11-20T15:37:06;9.38;;;6.07;;
53519;SDS011;39397;53.204;5.778;2022-11-20T15:39:32;9.20;;;6.10;;
53519;SDS011;39397;53.204;5.778;2022-11-20T15:41:58;8.82;;;5.82;;
53519;SDS011;39397;53.204;5.778;2022-11-20T15:44:23;11.25;;;6.97;;
53519;SDS011;39397;53.204;5.778;2022-11-20T15:46:49;13.48;;;7.38;;
53519;SDS011;39397;53.204;5.778;2022-11-20T15:49:15;10.85;;;5.97;;
53519;SDS011;39397;53.204;5.778;2022-11-20T15:51:44;12.93;;;7.45;;
53519;SDS011;39397;53.204;5.778;2022-11-20T15:54:14;9.45;;;6.40;;
53519;SDS011;39397;53.204;5.778;2022-11-20T15:56:43;9.32;;;6.13;;
53519;SDS011;39397;53.204;5.778;2022-11-20T15:59:09;11.00;;;6.75;;
53519;SDS011;39397;53.204;5.778;2022-11-20T16:01:34;11.32;;;7.30;;
53519;SDS011;39397;53.204;5.778;2022-11-20T16:04:19;9.80;;;6.57;;
53519;SDS011;39397;53.204;5.778;2022-11-20T16:06:44;9.27;;;5.90;;
53519;SDS011;39397;53.204;5.778;2022-11-20T16:09:10;9.02;;;6.10;;
53519;SDS011;39397;53.204;5.778;2022-11-20T16:11:36;8.93;;;5.93;;
53519;SDS011;39397;53.204;5.778;2022-11-20T16:14:05;9.57;;;6.50;;
53519;SDS011;39397;53.204;5.778;2022-11-20T16:16:50;10.27;;;6.13;;
53519;SDS011;39397;53.204;5.778;2022-11-20T16:19:16;9.55;;;6.07;;
53519;SDS011;39397;53.204;5.778;2022-11-20T16:21:43;9.50;;;6.05;;
53519;SDS011;39397;53.204;5.778;2022-11-20T16:24:10;9.98;;;6.10;;
53519;SDS011;39397;53.204;5.778;2022-11-20T16:26:38;11.02;;;6.60;;